Data for 10/19/2015

Time Sea-Level Adjusted Pressure Absolute Pressure Temperature Relative Humidity Dew Point   
(mb) (inHg) (mb) (inHg) (C) (F) (%) (C) (F)
00:05 1016 30 846 24.98 11.4 52.6 66 5.3 41.5
00:10 1016 30 845 24.95 11.4 52.5 66 5.3 41.5
00:15 1016 30 845 24.95 11.3 52.4 66 5.2 41.4
00:20 1016 30 845 24.95 10.8 51.4 70 5.5 41.8
00:25 1016 30 845 24.95 10.5 50.8 69 5.1 41.1
00:30 1016 30 845 24.95 10.5 51 69 5 41.1
00:35 1016 30 845 24.95 10.5 51 69 5.1 41.3
00:40 1016 30 845 24.95 10.5 50.9 68 4.8 40.7
00:45 1016 30 845 24.95 10.1 50.2 68 4.6 40.2
00:50 1016 30 845 24.95 10 50 70 4.7 40.5
00:55 1016 30 845 24.95 10.3 50.5 68 4.7 40.5
01:00 1016 30 845 24.95 10.4 50.7 70 5.1 41.2
01:05 1016 30 845 24.95 10.2 50.4 69 4.8 40.6
01:10 1016 30 845 24.95 10.6 51 67 4.8 40.7
01:15 1016 30 845 24.95 10.6 51 67 4.7 40.4
01:20 1016 30 845 24.95 10.4 50.6 68 4.7 40.4
01:25 1016 30 845 24.95 9.6 49.2 70 4.4 39.9
01:30 1016 30 845 24.95 9.3 48.7 70 4.2 39.5
01:35 1016 30 845 24.95 9.5 49.1 70 4.3 39.7
01:40 1016 30 845 24.95 9.2 48.6 70 4.2 39.5
01:45 1016 30 845 24.95 9.3 48.7 69 4 39.2
01:50 1016 30 845 24.95 9.4 49 69 4 39.2
01:55 1016 30 845 24.95 9.5 49.1 70 4.2 39.6
02:00 1016 30 845 24.95 9.3 48.7 70 4 39.3
02:05 1016 30 845 24.95 9.1 48.4 70 4 39.2
02:10 1016 30 845 24.95 9.3 48.7 70 4.2 39.5
02:15 1016 30 845 24.95 9.3 48.7 70 4.1 39.4
02:20 1016 30 845 24.95 8.9 48.1 72 4.1 39.4
02:25 1016 30 845 24.95 9 48.2 71 4.1 39.4
02:30 1016 30 845 24.95 9.1 48.4 70 4 39.2
02:35 1015 29.97 845 24.95 9.1 48.3 71 4 39.3
02:40 1015 29.97 845 24.95 9 48.2 71 4.1 39.3
02:45 1015 29.97 845 24.95 10 50 68 4.4 39.9
02:50 1015 29.97 845 24.95 10.4 50.8 67 4.6 40.2
02:55 1015 29.97 845 24.95 10.7 51.3 65 4.4 40
03:00 1015 29.97 845 24.95 10.6 51.1 67 4.8 40.6
03:05 1015 29.97 845 24.95 9.9 49.7 69 4.5 40.2
03:10 1015 29.97 845 24.95 9.5 49.2 70 4.4 40
03:15 1015 29.97 844 24.92 9.5 49.1 70 4.3 39.8
03:20 1015 29.97 844 24.92 10.3 50.5 67 4.4 39.9
03:25 1015 29.97 844 24.92 10.2 50.4 68 4.6 40.3
03:30 1015 29.97 844 24.92 10 49.9 69 4.5 40.1
03:35 1015 29.97 844 24.92 9.7 49.4 70 4.5 40.1
03:40 1015 29.97 844 24.92 10.1 50.1 68 4.4 39.9
03:45 1015 29.97 844 24.92 10.6 51.1 67 4.7 40.4
03:50 1015 29.97 844 24.92 10.4 50.7 67 4.6 40.4
03:55 1015 29.97 844 24.92 10.3 50.5 67 4.4 39.9
04:00 1015 29.97 844 24.92 10.3 50.5 66 4.3 39.7
04:05 1015 29.97 844 24.92 10.6 51 66 4.5 40.2
04:10 1015 29.97 844 24.92 10.4 50.8 67 4.6 40.2
04:15 1015 29.97 844 24.92 10.2 50.4 67 4.4 40
04:20 1015 29.97 844 24.92 9.7 49.5 70 4.5 40.1
04:25 1015 29.97 844 24.92 9.3 48.7 69 4 39.2
04:30 1015 29.97 844 24.92 9.8 49.7 67 4 39.3
04:35 1015 29.97 844 24.92 9.7 49.5 69 4.2 39.6
04:40 1015 29.97 844 24.92 9.3 48.7 70 4.1 39.5
04:45 1015 29.97 844 24.92 9.1 48.4 71 4.1 39.3
04:50 1015 29.97 844 24.92 8.9 48 71 3.9 39
04:55 1015 29.97 844 24.92 9.1 48.3 70 3.8 38.9
05:00 1015 29.97 844 24.92 9.4 48.9 69 4 39.2
05:05 1015 29.97 844 24.92 9.7 49.4 68 4.1 39.4
05:10 1015 29.97 844 24.92 10 50 68 4.3 39.8
05:15 1015 29.97 844 24.92 10.2 50.3 67 4.3 39.8
05:20 1015 29.97 844 24.92 10.3 50.5 67 4.5 40.1
05:25 1015 29.97 844 24.92 10.4 50.7 67 4.6 40.3
05:30 1015 29.97 844 24.92 10.4 50.8 67 4.6 40.3
05:35 1015 29.97 844 24.92 10.6 51.1 66 4.6 40.3
05:40 1014 29.94 844 24.92 10.9 51.7 68 5.2 41.4
05:45 1015 29.97 844 24.92 10.6 51.1 69 5.2 41.3
05:50 1015 29.97 844 24.92 10.5 50.9 69 5.1 41.2
05:55 1015 29.97 844 24.92 10.5 50.9 69 5.1 41.2
06:00 1015 29.97 844 24.92 10.4 50.6 70 5.1 41.1
06:05 1015 29.97 844 24.92 10.4 50.6 69 5.1 41.1
06:10 1015 29.97 844 24.92 10.3 50.5 70 5.1 41.2
06:15 1015 29.97 844 24.92 10.3 50.6 69 5 41
06:20 1014 29.94 844 24.92 10.4 50.7 70 5.1 41.2
06:25 1014 29.94 844 24.92 10.3 50.6 70 5.2 41.3
06:30 1014 29.94 844 24.92 10.3 50.5 70 5 41
06:35 1014 29.94 844 24.92 10.5 50.8 69 5 41
06:40 1014 29.94 844 24.92 10.5 50.9 68 5 41
06:45 1014 29.94 844 24.92 10.4 50.8 70 5.2 41.3
06:50 1015 29.97 844 24.92 10.5 50.9 69 5 41
06:55 1015 29.97 844 24.92 10.5 50.9 69 5.1 41.1
07:00 1015 29.97 844 24.92 10.4 50.7 70 5.1 41.1
07:05 1015 29.97 844 24.92 10.2 50.4 70 5 40.9
07:10 1014 29.94 844 24.92 10.2 50.3 70 5 40.9
07:15 1014 29.94 844 24.92 10.3 50.6 69 4.9 40.9
07:20 1014 29.94 844 24.92 10.5 50.8 68 4.9 40.8
07:25 1014 29.94 844 24.92 10.7 51.2 68 5 41
07:30 1014 29.94 844 24.92 10.8 51.4 67 5 40.9
07:35 1014 29.94 844 24.92 10.8 51.5 67 5 40.9
07:40 1014 29.94 844 24.92 10.9 51.6 66 4.8 40.7
07:45 1014 29.94 844 24.92 10.9 51.6 66 4.7 40.5
07:50 1014 29.94 844 24.92 10.9 51.6 65 4.6 40.3
07:55 1014 29.94 843 24.89 11 51.8 64 4.4 40
08:00 1014 29.94 844 24.92 11 51.8 63 4.4 39.9
08:05 1014 29.94 844 24.92 11 51.9 63 4.3 39.7
08:10 1014 29.94 844 24.92 11.1 52 63 4.3 39.8
08:15 1014 29.94 844 24.92 11.2 52.1 63 4.4 39.9
08:20 1014 29.94 844 24.92 11.2 52.2 62 4.2 39.6
08:25 1014 29.94 844 24.92 11.3 52.3 62 4.4 39.9
08:30 1014 29.94 844 24.92 11.3 52.3 62 4.4 39.9
08:35 1014 29.94 844 24.92 11.3 52.3 63 4.5 40.1
08:40 1014 29.94 844 24.92 11.2 52.2 63 4.5 40.2
08:45 1015 29.97 844 24.92 11.3 52.3 63 4.4 40
08:50 1015 29.97 844 24.92 11.4 52.5 62 4.5 40.1
08:55 1015 29.97 844 24.92 11.4 52.6 62 4.6 40.2
09:00 1015 29.97 844 24.92 11.5 52.6 62 4.5 40.2
09:05 1015 29.97 844 24.92 11.4 52.6 62 4.5 40.1
09:10 1015 29.97 844 24.92 11.5 52.6 63 4.8 40.6
09:15 1015 29.97 844 24.92 11.5 52.8 63 4.9 40.8
09:20 1015 29.97 844 24.92 11.5 52.7 65 5.1 41.1
09:25 1015 29.97 844 24.92 11.5 52.7 64 4.9 40.9
09:30 1015 29.97 844 24.92 11.5 52.7 64 5 40.9
09:35 1015 29.97 844 24.92 11.5 52.7 64 5 41
09:40 1015 29.97 844 24.92 11.6 52.8 63 4.9 40.8
09:45 1015 29.97 844 24.92 11.6 52.9 61 4.5 40.1
09:50 1015 29.97 844 24.92 11.8 53.2 61 4.5 40
09:55 1014 29.94 844 24.92 11.9 53.4 60 4.4 39.9
10:00 1015 29.97 844 24.92 12 53.5 60 4.5 40.2
10:05 1014 29.94 844 24.92 12.1 53.8 60 4.6 40.2
10:10 1014 29.94 844 24.92 12.2 54 59 4.6 40.3
10:15 1014 29.94 844 24.92 12.4 54.2 59 4.6 40.3
10:20 1014 29.94 844 24.92 12.6 54.6 58 4.6 40.2
10:25 1014 29.94 844 24.92 12.8 55 57 4.4 40
10:30 1014 29.94 844 24.92 13 55.4 56 4.5 40.1
10:35 1014 29.94 843 24.89 13.2 55.7 56 4.6 40.2
10:40 1014 29.94 843 24.89 13.4 56 56 4.9 40.8
10:45 1014 29.94 843 24.89 13.6 56.4 55 4.8 40.6
10:50 1014 29.94 843 24.89 13.5 56.2 55 4.7 40.5
10:55 1014 29.94 843 24.89 13.5 56.4 55 4.8 40.7
11:00 1014 29.94 843 24.89 13.8 56.9 54 4.7 40.5
11:05 1014 29.94 843 24.89 13.8 56.8 55 4.9 40.7
11:10 1014 29.94 843 24.89 14.1 57.4 53 4.6 40.3
11:15 1014 29.94 843 24.89 14.4 58 53 5.1 41.1
11:20 1014 29.94 843 24.89 14.7 58.4 52 4.9 40.9
11:25 1014 29.94 843 24.89 15 58.9 51 5.1 41.1
11:30 1014 29.94 843 24.89 14.9 58.7 52 5.1 41.1
11:35 1014 29.94 843 24.89 15.3 59.5 50 5 41
11:40 1014 29.94 843 24.89 15.7 60.3 48 5 40.9
11:45 1014 29.94 843 24.89 15.9 60.7 47 4.8 40.7
11:50 1014 29.94 843 24.89 16.4 61.6 45 4.7 40.4
11:55 1014 29.94 843 24.89 16.7 62 45 4.8 40.6
12:00 1014 29.94 843 24.89 16.8 62.3 44 4.8 40.6
12:05 1014 29.94 843 24.89 16.9 62.5 45 5.2 41.3
12:10 1014 29.94 843 24.89 16.6 61.8 51 6.5 43.6
12:15 1014 29.94 843 24.89 15.9 60.6 51 6 42.8
12:20 1013 29.91 843 24.89 16 60.7 52 6.3 43.3
12:25 1013 29.91 843 24.89 15.9 60.5 52 6.1 42.9
12:30 1013 29.91 843 24.89 15.4 59.7 54 6.1 43
12:35 1013 29.91 843 24.89 15.6 60 53 6.2 43.1
12:40 1013 29.91 843 24.89 15.8 60.4 52 6 42.8
12:45 1013 29.91 843 24.89 15.9 60.6 51 5.9 42.6
12:50 1013 29.91 843 24.89 16 60.8 51 6 42.8
12:55 1013 29.91 843 24.89 16 60.8 53 6.6 43.8
13:00 1013 29.91 843 24.89 15.9 60.7 53 6.4 43.6
13:05 1013 29.91 842 24.86 15.9 60.7 52 6.1 43
13:10 1013 29.91 842 24.86 15.6 60.1 53 6.1 42.9
13:15 1013 29.91 842 24.86 15.6 60.1 52 5.9 42.6
13:20 1013 29.91 842 24.86 16.1 60.9 50 5.9 42.6
13:25 1013 29.91 842 24.86 16.3 61.3 51 6.1 43
13:30 1013 29.91 842 24.86 15.9 60.7 51 5.9 42.6
13:35 1013 29.91 842 24.86 16.2 61.2 49 5.5 41.9
13:40 1013 29.91 842 24.86 16.6 61.8 47 5.4 41.7
13:45 1013 29.91 842 24.86 16.6 62 48 5.6 42.2
13:50 1013 29.91 842 24.86 16.5 61.7 47 5.4 41.7
13:55 1013 29.91 842 24.86 16.4 61.5 48 5.5 41.8
14:00 1013 29.91 842 24.86 16.3 61.3 48 5.2 41.4
14:05 1013 29.91 842 24.86 16.2 61.2 49 5.5 41.8
14:10 1013 29.91 842 24.86 16.2 61.1 48 5.1 41.2
14:15 1013 29.91 842 24.86 16.3 61.4 47 5.1 41.1
14:20 1013 29.91 842 24.86 16.7 62.1 47 5.6 42
14:25 1013 29.91 842 24.86 16.6 61.9 50 6.1 43
14:30 1013 29.91 842 24.86 16.6 62 49 5.9 42.6
14:35 1013 29.91 842 24.86 16.7 62 49 6.1 43
14:40 1013 29.91 842 24.86 16.2 61.1 52 6.4 43.5
14:45 1013 29.91 842 24.86 15.7 60.3 55 6.8 44.2
14:50 1013 29.91 842 24.86 15.6 60.1 55 6.6 43.8
14:55 1013 29.91 842 24.86 15.8 60.4 52 6 42.9
15:00 1013 29.91 842 24.86 15.8 60.5 52 6.1 43
15:05 1013 29.91 842 24.86 15.9 60.6 51 6 42.8
15:10 1013 29.91 842 24.86 16 60.9 52 6.3 43.4
15:15 1013 29.91 842 24.86 16 60.8 54 6.9 44.4
15:20 1013 29.91 842 24.86 15.6 60.2 59 7.8 46
15:25 1013 29.91 842 24.86 15.3 59.6 62 8.1 46.6
15:30 1013 29.91 842 24.86 15.1 59.1 65 8.5 47.3
15:35 1013 29.91 842 24.86 15 58.9 68 9.1 48.3
15:40 1013 29.91 842 24.86 14.4 58 69 8.8 47.9
15:45 1013 29.91 842 24.86 13.9 57 73 9.2 48.6
15:50 1013 29.91 842 24.86 13.5 56.3 76 9.3 48.8
15:55 1013 29.91 842 24.86 13.3 55.9 76 9.1 48.5
16:00 1013 29.91 842 24.86 13.2 55.8 73 8.5 47.3
16:05 1013 29.91 842 24.86 13.3 56 73 8.6 47.5
16:10 1013 29.91 842 24.86 13.3 55.9 74 8.8 47.8
16:15 1013 29.91 842 24.86 13.1 55.6 76 9 48.1
16:20 1013 29.91 842 24.86 13 55.3 77 9 48.2
16:25 1013 29.91 842 24.86 12.9 55.1 77 9 48.2
16:30 1013 29.91 842 24.86 12.7 54.9 79 9.1 48.4
16:35 1013 29.91 842 24.86 12.5 54.6 79 8.9 48.1
16:40 1013 29.91 842 24.86 12.4 54.3 79 8.8 47.8
16:45 1013 29.91 842 24.86 12.3 54.2 79 8.8 47.8
16:50 1013 29.91 842 24.86 12.2 53.9 78 8.6 47.4
16:55 1013 29.91 842 24.86 12.2 53.9 77 8.4 47.1
17:00 1013 29.91 842 24.86 12 53.6 78 8.3 46.9
17:05 1013 29.91 842 24.86 11.9 53.3 80 8.5 47.3
17:10 1013 29.91 842 24.86 11.8 53.2 80 8.5 47.4
17:15 1013 29.91 842 24.86 11.9 53.4 79 8.4 47.2
17:20 1013 29.91 843 24.89 12 53.7 76 8.1 46.5
17:25 1013 29.91 843 24.89 12 53.6 79 8.5 47.2
17:30 1013 29.91 843 24.89 11.7 53.1 81 8.6 47.5
17:35 1013 29.91 843 24.89 11.4 52.6 83 8.7 47.6
17:40 1013 29.91 843 24.89 10.9 51.6 84 8.4 47.1
17:45 1013 29.91 843 24.89 10.8 51.4 84 8.2 46.7
17:50 1013 29.91 843 24.89 10.7 51.2 84 8.1 46.5
17:55 1013 29.91 843 24.89 10.6 51.2 85 8.3 46.9
18:00 1014 29.94 843 24.89 10.5 50.9 86 8.3 46.9
18:05 1014 29.94 843 24.89 10.5 50.9 82 7.7 45.8
18:10 1014 29.94 843 24.89 10.9 51.7 80 7.6 45.7
18:15 1014 29.94 843 24.89 10.9 51.6 81 7.9 46.1
18:20 1014 29.94 843 24.89 10.7 51.2 84 8.1 46.5
18:25 1014 29.94 843 24.89 10.5 50.9 83 7.8 46.1
18:30 1014 29.94 843 24.89 10.4 50.8 83 7.7 45.9
18:35 1014 29.94 843 24.89 10.4 50.7 83 7.7 45.8
18:40 1014 29.94 843 24.89 10.4 50.7 86 8.2 46.7
18:45 1014 29.94 843 24.89 10.2 50.3 88 8.3 47
18:50 1014 29.94 843 24.89 10 50.1 88 8.1 46.6
18:55 1014 29.94 843 24.89 10.1 50.3 81 7.1 44.7
19:00 1014 29.94 843 24.89 10.6 51 77 6.6 44
19:05 1014 29.94 843 24.89 11 51.7 76 7 44.6
19:10 1014 29.94 843 24.89 10.9 51.7 77 7.1 44.7
19:15 1014 29.94 843 24.89 10.9 51.6 76 6.9 44.3
19:20 1014 29.94 843 24.89 10.9 51.5 78 7.2 44.9
19:25 1014 29.94 843 24.89 10.8 51.4 78 7.2 44.9
19:30 1014 29.94 843 24.89 10.9 51.6 72 6.1 43
19:35 1014 29.94 843 24.89 11.2 52.1 72 6.3 43.4
19:40 1014 29.94 843 24.89 11.2 52.2 73 6.5 43.8
19:45 1015 29.97 844 24.92 11.1 52 77 7.3 45.2
19:50 1015 29.97 844 24.92 10.9 51.6 82 8 46.5
19:55 1015 29.97 844 24.92 10.6 51 83 7.9 46.1
20:00 1015 29.97 844 24.92 10.4 50.7 86 8.2 46.7
20:05 1015 29.97 844 24.92 10.3 50.5 87 8.3 46.9
20:10 1015 29.97 844 24.92 10.2 50.3 88 8.3 46.9
20:15 1015 29.97 844 24.92 10.1 50.2 88 8.3 46.9
20:20 1015 29.97 844 24.92 10 50.1 88 8.2 46.7
20:25 1015 29.97 844 24.92 10.1 50.1 87 8 46.4
20:30 1015 29.97 844 24.92 10.1 50.2 87 8.1 46.6
20:35 1015 29.97 844 24.92 10.2 50.3 88 8.2 46.8
20:40 1015 29.97 844 24.92 10.1 50.2 88 8.2 46.8
20:45 1015 29.97 844 24.92 10.1 50.2 88 8.3 46.9
20:50 1015 29.97 844 24.92 10 50 89 8.3 46.9
20:55 1015 29.97 844 24.92 10 50 89 8.3 46.9
21:00 1015 29.97 844 24.92 10 49.9 89 8.2 46.8
21:05 1015 29.97 844 24.92 10 49.9 89 8.3 46.9
21:10 1015 29.97 844 24.92 9.9 49.9 89 8.2 46.8
21:15 1015 29.97 844 24.92 9.9 49.8 89 8.2 46.8
21:20 1015 29.97 845 24.95 9.8 49.7 90 8.3 46.9
21:25 1015 29.97 845 24.95 9.9 49.7 89 8.2 46.8
21:30 1015 29.97 845 24.95 9.8 49.7 89 8.1 46.6
21:35 1015 29.97 845 24.95 9.8 49.7 89 8.1 46.6
21:40 1015 29.97 845 24.95 9.8 49.6 89 8 46.4
21:45 1015 29.97 845 24.95 9.8 49.6 87 7.6 45.8
21:50 1015 29.97 845 24.95 9.7 49.5 87 7.7 45.8
21:55 1015 29.97 845 24.95 9.6 49.3 87 7.6 45.7
22:00 1016 30 845 24.95 9.6 49.2 88 7.7 45.9
22:05 1016 30 845 24.95 9.5 49.1 89 7.8 46.1
22:10 1016 30 845 24.95 9.5 49.1 90 7.9 46.1
22:15 1016 30 845 24.95 9.5 49 90 7.9 46.2
22:20 1016 30 845 24.95 9.4 49 90 7.9 46.3
22:25 1016 30 845 24.95 9.4 48.9 90 7.9 46.2
22:30 1016 30 845 24.95 9.3 48.8 91 7.9 46.2
22:35 1016 30 845 24.95 9.3 48.8 91 7.9 46.2
22:40 1016 30 845 24.95 9.3 48.7 91 7.9 46.2
22:45 1016 30 845 24.95 9.2 48.6 91 7.8 46.1
22:50 1016 30 845 24.95 9.2 48.6 91 7.8 46.1
22:55 1016 30 845 24.95 9.2 48.5 91 7.8 46
23:00 1016 30 845 24.95 9.2 48.5 91 7.8 46
23:05 1016 30 845 24.95 9.1 48.4 91 7.8 46
23:10 1016 30 845 24.95 9.1 48.4 91 7.8 46
23:15 1016 30 845 24.95 9.1 48.4 91 7.8 46
23:20 1016 30 845 24.95 9.1 48.3 92 7.8 46
23:25 1016 30 845 24.95 9.1 48.3 91 7.7 45.9
23:30 1016 30 845 24.95 9 48.2 91 7.6 45.8
23:35 1016 30 845 24.95 9 48.1 91 7.7 45.8
23:40 1016 30 845 24.95 8.9 48.1 91 7.6 45.7
23:45 1016 30 845 24.95 8.8 47.9 91 7.5 45.5
23:50 1016 30 845 24.95 8.8 47.8 91 7.4 45.3
23:55 1016 30 845 24.95 8.7 47.7 91 7.3 45.1
24:00 1016 30 845 24.95 8.6 47.4 91 7.1 44.9